Sydnee Taylor — WDD4807 — position and weather

sailwx.info

Track history (hours):
 
Tides and Currents Weather Stations Pressure Air Temp Water Temp Dewpoint Dewpoint Depression Visibility Wind Speed Wind Dir Waves Ship Positions

Sydnee Taylor

Owner: Florida Marine, LLC, Mandeville, LA. More information available from US FCC via Universal Licensing System and Coast Guard Vessel Documentation Center.

Last reported at 2017-Nov-12 12:08 UTC. Time now 2017-Nov-24 02:27 UTC.
Position N 29°33' W 090°25'.
Warning: this ship's position is 11 days out of date.

Length 27 m; draft 2.6 m.

Type: Towing. MMSI: 367149340.

Date/timePositionNaut miles runAvg speedWind from/ knotsBaromVisibWave heightAir tempDewpointWater temp
2017-Nov-12 12:08N 29°33' W 090°25'1 5.2
2017-Nov-12 11:57N 29°33' W 090°26'2 5.1
2017-Nov-12 11:30N 29°34' W 090°28'3 5.0
2017-Nov-12 11:00N 29°34' W 090°31'2 4.7
2017-Nov-12 10:30N 29°34' W 090°34'2 4.4
2017-Nov-12 10:00N 29°35' W 090°36'1 2.8
2017-Nov-12 09:30N 29°35' W 090°38'1 1.3
2017-Nov-12 09:00N 29°35' W 090°39'2 4.6
2017-Nov-12 08:30N 29°36' W 090°41'1 2.9
2017-Nov-12 08:00N 29°36' W 090°43'2 4.1
2017-Nov-12 07:30N 29°34' W 090°43'2 3.7
2017-Nov-12 07:00N 29°33' W 090°45'0 0.0
2017-Nov-12 06:30N 29°33' W 090°45'0 0.6
2017-Nov-12 06:00N 29°33' W 090°45'1 1.9
2017-Nov-12 05:30N 29°32' W 090°46'3 5.6
2017-Nov-12 05:00N 29°32' W 090°49'3 5.5
2017-Nov-12 04:30N 29°32' W 090°53'2 4.6
2017-Nov-12 04:00N 29°33' W 090°55'3 5.3
2017-Nov-12 03:23N 29°35' W 090°58'3 0.2
2017-Nov-11 11:36N 29°38' W 090°56'0 0.1
2017-Nov-11 11:29N 29°38' W 090°56'0 0.6
2017-Nov-11 11:00N 29°37' W 090°56'0 0.6
2017-Nov-11 10:28N 29°38' W 090°56'0 0.0
2017-Nov-11 09:55N 29°38' W 090°56'0 0.0
2017-Nov-11 09:30N 29°38' W 090°56'0 0.0
2017-Nov-11 08:57N 29°38' W 090°56'0 0.0
2017-Nov-11 08:23N 29°38' W 090°56'0 0.0
2017-Nov-11 07:59N 29°38' W 090°56'0 0.0
2017-Nov-11 07:30N 29°38' W 090°56'0 0.0
2017-Nov-11 06:57N 29°38' W 090°56'0 0.0
2017-Nov-11 06:25N 29°38' W 090°56'0 0.0
2017-Nov-11 05:26N 29°38' W 090°56'0 0.0
2017-Nov-11 04:58N 29°38' W 090°56'0 0.0
2017-Nov-11 04:28N 29°38' W 090°56'0 0.0
2017-Nov-11 03:56N 29°38' W 090°56'0 0.0
2017-Nov-11 03:30N 29°38' W 090°56'0 0.0
2017-Nov-11 03:00N 29°38' W 090°56'3 0.4
2017-Nov-10 19:21N 29°35' W 090°58'2 6.0
2017-Nov-10 19:00N 29°34' W 090°56'3 6.4
2017-Nov-10 18:29N 29°32' W 090°53'3 6.5
2017-Nov-10 18:00N 29°32' W 090°49'3 6.0
2017-Nov-10 17:30N 29°33' W 090°46'3 5.5
2017-Nov-10 17:00N 29°34' W 090°43'2 4.6
2017-Nov-10 16:30N 29°36' W 090°43'1 1.4
2017-Nov-10 16:00N 29°37' W 090°42'1 2.6
2017-Nov-10 15:30N 29°36' W 090°41'3 6.0
2017-Nov-10 15:00N 29°35' W 090°38'3 5.5
2017-Nov-10 14:30N 29°34' W 090°34'0 0.1
2017-Nov-10 14:00N 29°34' W 090°34'0 0.0
2017-Nov-10 13:30N 29°34' W 090°34'0 0.0
2017-Nov-10 13:00N 29°34' W 090°34'0 0.0
2017-Nov-10 12:30N 29°34' W 090°34'1 1.8
2017-Nov-10 12:00N 29°34' W 090°34'6 4.3
2017-Nov-10 10:31N 29°33' W 090°26'0 0.0
2017-Nov-10 10:30N 29°33' W 090°26'0 0.0
2017-Nov-10 09:17N 29°33' W 090°26'0 0.0
2017-Nov-10 09:00N 29°33' W 090°26'0 0.0
2017-Nov-10 08:30N 29°33' W 090°26'0 0.1
2017-Nov-10 08:00N 29°33' W 090°26'2 2.8
2017-Nov-10 07:20N 29°33' W 090°24'  
Track history (hours):
 
Tides and Currents Weather Stations Pressure Air Temp Water Temp Dewpoint Dewpoint Depression Visibility Wind Speed Wind Dir Waves Ship Positions

Sydnee Taylor

Owner: Florida Marine, LLC, Mandeville, LA. More information available from US FCC via Universal Licensing System and Coast Guard Vessel Documentation Center.

Last reported at 2017-Nov-12 12:08 UTC. Time now 2017-Nov-24 02:27 UTC.
Position N 29°33' W 090°25'.
Warning: this ship's position is 11 days out of date.

Length 27 m; draft 2.6 m.

Type: Towing. MMSI: 367149340.

Date/timePositionNaut miles runAvg speedWind from/ knotsBaromVisibWave heightAir tempDewpointWater temp
2017-Nov-12 12:08N 29°33' W 090°25'1 5.2
2017-Nov-12 11:57N 29°33' W 090°26'2 5.1
2017-Nov-12 11:30N 29°34' W 090°28'3 5.0
2017-Nov-12 11:00N 29°34' W 090°31'2 4.7
2017-Nov-12 10:30N 29°34' W 090°34'2 4.4
2017-Nov-12 10:00N 29°35' W 090°36'1 2.8
2017-Nov-12 09:30N 29°35' W 090°38'1 1.3
2017-Nov-12 09:00N 29°35' W 090°39'2 4.6
2017-Nov-12 08:30N 29°36' W 090°41'1 2.9
2017-Nov-12 08:00N 29°36' W 090°43'2 4.1
2017-Nov-12 07:30N 29°34' W 090°43'2 3.7
2017-Nov-12 07:00N 29°33' W 090°45'0 0.0
2017-Nov-12 06:30N 29°33' W 090°45'0 0.6
2017-Nov-12 06:00N 29°33' W 090°45'1 1.9
2017-Nov-12 05:30N 29°32' W 090°46'3 5.6
2017-Nov-12 05:00N 29°32' W 090°49'3 5.5
2017-Nov-12 04:30N 29°32' W 090°53'2 4.6
2017-Nov-12 04:00N 29°33' W 090°55'3 5.3
2017-Nov-12 03:23N 29°35' W 090°58'3 0.2
2017-Nov-11 11:36N 29°38' W 090°56'0 0.1
2017-Nov-11 11:29N 29°38' W 090°56'0 0.6
2017-Nov-11 11:00N 29°37' W 090°56'0 0.6
2017-Nov-11 10:28N 29°38' W 090°56'0 0.0
2017-Nov-11 09:55N 29°38' W 090°56'0 0.0
2017-Nov-11 09:30N 29°38' W 090°56'0 0.0
2017-Nov-11 08:57N 29°38' W 090°56'0 0.0
2017-Nov-11 08:23N 29°38' W 090°56'0 0.0
2017-Nov-11 07:59N 29°38' W 090°56'0 0.0
2017-Nov-11 07:30N 29°38' W 090°56'0 0.0
2017-Nov-11 06:57N 29°38' W 090°56'0 0.0
2017-Nov-11 06:25N 29°38' W 090°56'0 0.0
2017-Nov-11 05:26N 29°38' W 090°56'0 0.0
2017-Nov-11 04:58N 29°38' W 090°56'0 0.0
2017-Nov-11 04:28N 29°38' W 090°56'0 0.0
2017-Nov-11 03:56N 29°38' W 090°56'0 0.0
2017-Nov-11 03:30N 29°38' W 090°56'0 0.0
2017-Nov-11 03:00N 29°38' W 090°56'3 0.4
2017-Nov-10 19:21N 29°35' W 090°58'2 6.0
2017-Nov-10 19:00N 29°34' W 090°56'3 6.4
2017-Nov-10 18:29N 29°32' W 090°53'3 6.5
2017-Nov-10 18:00N 29°32' W 090°49'3 6.0
2017-Nov-10 17:30N 29°33' W 090°46'3 5.5
2017-Nov-10 17:00N 29°34' W 090°43'2 4.6
2017-Nov-10 16:30N 29°36' W 090°43'1 1.4
2017-Nov-10 16:00N 29°37' W 090°42'1 2.6
2017-Nov-10 15:30N 29°36' W 090°41'3 6.0
2017-Nov-10 15:00N 29°35' W 090°38'3 5.5
2017-Nov-10 14:30N 29°34' W 090°34'0 0.1
2017-Nov-10 14:00N 29°34' W 090°34'0 0.0
2017-Nov-10 13:30N 29°34' W 090°34'0 0.0
2017-Nov-10 13:00N 29°34' W 090°34'0 0.0
2017-Nov-10 12:30N 29°34' W 090°34'1 1.8
2017-Nov-10 12:00N 29°34' W 090°34'6 4.3
2017-Nov-10 10:31N 29°33' W 090°26'0 0.0
2017-Nov-10 10:30N 29°33' W 090°26'0 0.0
2017-Nov-10 09:17N 29°33' W 090°26'0 0.0
2017-Nov-10 09:00N 29°33' W 090°26'0 0.0
2017-Nov-10 08:30N 29°33' W 090°26'0 0.1
2017-Nov-10 08:00N 29°33' W 090°26'2 2.8
2017-Nov-10 07:20N 29°33' W 090°24'  

Dump ship's entire track history